Terminal Aerodrome Forecast
Issued by NWS Wichita, KS

Home | Current Version | Previous Version | Graphics & Text | Print | Product List | Glossary On
Versions: 1 2 3 4 5 6 7 8 9 10 11 12 13 14 15 16 17 18
000
FTUS43 KICT 161700
TAFICT
TAF
KICT 161739Z 1618/1718 09008KT P6SM SCT020 BKN030
     FM162000 13008KT P6SM BKN035
     FM170600 16007KT P6SM SCT015 BKN020
     FM171500 21010KT P6SM SCT015 SCT250=

USA.gov is the U.S. government's official web portal to all federal, state and local government web resources and services.